sensor_id;sensor_type;location;lat;lon;timestamp;temperature;humidity
1361;DHT22;674;45.552;-122.600;2024-03-02T00:02:07;7.40;1.00
1361;DHT22;674;45.552;-122.600;2024-03-02T00:04:35;7.60;1.00
1361;DHT22;674;45.552;-122.600;2024-03-02T00:07:06;7.40;1.00
1361;DHT22;674;45.552;-122.600;2024-03-02T00:09:35;7.50;1.00
1361;DHT22;674;45.552;-122.600;2024-03-02T00:12:05;7.30;1.00
1361;DHT22;674;45.552;-122.600;2024-03-02T00:14:33;7.30;1.00
1361;DHT22;674;45.552;-122.600;2024-03-02T00:17:02;7.30;1.00
1361;DHT22;674;45.552;-122.600;2024-03-02T00:19:31;7.30;1.00
1361;DHT22;674;45.552;-122.600;2024-03-02T00:22:01;7.40;1.00
1361;DHT22;674;45.552;-122.600;2024-03-02T00:24:34;7.50;1.00
1361;DHT22;674;45.552;-122.600;2024-03-02T00:27:04;7.30;1.00
1361;DHT22;674;45.552;-122.600;2024-03-02T00:29:35;7.10;1.00
1361;DHT22;674;45.552;-122.600;2024-03-02T00:32:03;7.20;1.00
1361;DHT22;674;45.552;-122.600;2024-03-02T00:34:35;7.10;1.00
1361;DHT22;674;45.552;-122.600;2024-03-02T00:37:03;7.30;1.00
1361;DHT22;674;45.552;-122.600;2024-03-02T00:39:32;7.20;1.00
1361;DHT22;674;45.552;-122.600;2024-03-02T00:42:00;7.10;1.00
1361;DHT22;674;45.552;-122.600;2024-03-02T00:44:29;7.10;1.00
1361;DHT22;674;45.552;-122.600;2024-03-02T00:47:03;7.10;1.00
1361;DHT22;674;45.552;-122.600;2024-03-02T00:49:31;7.30;1.00
1361;DHT22;674;45.552;-122.600;2024-03-02T00:52:02;7.20;1.00
1361;DHT22;674;45.552;-122.600;2024-03-02T00:54:31;7.00;1.00
1361;DHT22;674;45.552;-122.600;2024-03-02T00:56:59;6.90;1.00
1361;DHT22;674;45.552;-122.600;2024-03-02T00:59:28;6.80;1.00
1361;DHT22;674;45.552;-122.600;2024-03-02T01:01:57;6.80;1.00
1361;DHT22;674;45.552;-122.600;2024-03-02T01:04:26;6.70;1.00
1361;DHT22;674;45.552;-122.600;2024-03-02T01:06:54;6.80;1.00
1361;DHT22;674;45.552;-122.600;2024-03-02T01:09:23;6.80;1.00
1361;DHT22;674;45.552;-122.600;2024-03-02T01:11:51;6.80;1.00
1361;DHT22;674;45.552;-122.600;2024-03-02T01:14:19;6.40;1.00
1361;DHT22;674;45.552;-122.600;2024-03-02T01:16:48;6.60;1.00
1361;DHT22;674;45.552;-122.600;2024-03-02T01:19:17;6.60;1.00
1361;DHT22;674;45.552;-122.600;2024-03-02T01:21:45;6.60;1.00
1361;DHT22;674;45.552;-122.600;2024-03-02T01:24:14;6.40;1.00
1361;DHT22;674;45.552;-122.600;2024-03-02T01:26:42;6.30;1.00
1361;DHT22;674;45.552;-122.600;2024-03-02T01:29:11;6.50;1.00
1361;DHT22;674;45.552;-122.600;2024-03-02T01:31:39;6.30;1.00
1361;DHT22;674;45.552;-122.600;2024-03-02T01:34:10;6.10;1.00
1361;DHT22;674;45.552;-122.600;2024-03-02T01:36:38;6.20;1.00
1361;DHT22;674;45.552;-122.600;2024-03-02T01:39:07;6.00;1.00
1361;DHT22;674;45.552;-122.600;2024-03-02T01:41:37;6.00;1.00
1361;DHT22;674;45.552;-122.600;2024-03-02T01:44:06;5.90;1.00
1361;DHT22;674;45.552;-122.600;2024-03-02T01:46:34;5.90;1.00
1361;DHT22;674;45.552;-122.600;2024-03-02T01:49:03;5.90;1.00
1361;DHT22;674;45.552;-122.600;2024-03-02T01:51:32;6.00;1.00
1361;DHT22;674;45.552;-122.600;2024-03-02T01:54:01;5.90;1.00
1361;DHT22;674;45.552;-122.600;2024-03-02T01:56:29;5.60;1.00
1361;DHT22;674;45.552;-122.600;2024-03-02T01:58:58;6.00;1.00
1361;DHT22;674;45.552;-122.600;2024-03-02T02:01:26;5.90;1.00
1361;DHT22;674;45.552;-122.600;2024-03-02T02:03:55;5.60;1.00
1361;DHT22;674;45.552;-122.600;2024-03-02T02:06:24;5.60;1.00
1361;DHT22;674;45.552;-122.600;2024-03-02T02:08:52;5.40;1.00
1361;DHT22;674;45.552;-122.600;2024-03-02T02:11:20;5.30;1.00
1361;DHT22;674;45.552;-122.600;2024-03-02T02:13:49;5.60;1.00
1361;DHT22;674;45.552;-122.600;2024-03-02T02:16:17;5.60;1.00
1361;DHT22;674;45.552;-122.600;2024-03-02T02:18:46;5.40;1.00
1361;DHT22;674;45.552;-122.600;2024-03-02T02:21:15;5.40;1.00
1361;DHT22;674;45.552;-122.600;2024-03-02T02:23:43;5.40;1.00
1361;DHT22;674;45.552;-122.600;2024-03-02T02:26:16;5.30;1.00
1361;DHT22;674;45.552;-122.600;2024-03-02T02:28:44;5.30;1.00
1361;DHT22;674;45.552;-122.600;2024-03-02T02:31:15;5.30;1.00
1361;DHT22;674;45.552;-122.600;2024-03-02T02:33:43;5.60;1.00
1361;DHT22;674;45.552;-122.600;2024-03-02T02:36:12;5.30;1.00
1361;DHT22;674;45.552;-122.600;2024-03-02T02:38:44;5.60;1.00
1361;DHT22;674;45.552;-122.600;2024-03-02T02:41:13;5.30;1.00
1361;DHT22;674;45.552;-122.600;2024-03-02T02:43:41;5.30;1.00
1361;DHT22;674;45.552;-122.600;2024-03-02T02:46:09;5.30;1.00
1361;DHT22;674;45.552;-122.600;2024-03-02T02:48:38;5.50;1.00
1361;DHT22;674;45.552;-122.600;2024-03-02T02:51:06;5.30;1.00
1361;DHT22;674;45.552;-122.600;2024-03-02T02:53:35;5.60;1.00
1361;DHT22;674;45.552;-122.600;2024-03-02T02:56:08;5.30;1.00
1361;DHT22;674;45.552;-122.600;2024-03-02T02:58:36;5.60;1.00
1361;DHT22;674;45.552;-122.600;2024-03-02T03:01:04;5.40;1.00
1361;DHT22;674;45.552;-122.600;2024-03-02T03:03:33;5.30;1.00
1361;DHT22;674;45.552;-122.600;2024-03-02T03:06:02;5.60;1.00
1361;DHT22;674;45.552;-122.600;2024-03-02T03:08:30;5.40;1.00
1361;DHT22;674;45.552;-122.600;2024-03-02T03:10:58;5.60;1.00
1361;DHT22;674;45.552;-122.600;2024-03-02T03:13:27;5.80;1.00
1361;DHT22;674;45.552;-122.600;2024-03-02T03:15:56;5.90;1.00
1361;DHT22;674;45.552;-122.600;2024-03-02T03:18:24;5.70;1.00
1361;DHT22;674;45.552;-122.600;2024-03-02T03:20:53;5.80;1.00
1361;DHT22;674;45.552;-122.600;2024-03-02T03:23:21;5.90;1.00
1361;DHT22;674;45.552;-122.600;2024-03-02T03:25:50;5.90;1.00
1361;DHT22;674;45.552;-122.600;2024-03-02T03:28:18;5.90;1.00
1361;DHT22;674;45.552;-122.600;2024-03-02T03:30:47;5.60;1.00
1361;DHT22;674;45.552;-122.600;2024-03-02T03:33:15;5.70;1.00
1361;DHT22;674;45.552;-122.600;2024-03-02T03:35:44;5.80;1.00
1361;DHT22;674;45.552;-122.600;2024-03-02T03:38:12;5.70;1.00
1361;DHT22;674;45.552;-122.600;2024-03-02T03:40:40;5.70;1.00
1361;DHT22;674;45.552;-122.600;2024-03-02T03:43:09;5.70;1.00
1361;DHT22;674;45.552;-122.600;2024-03-02T03:45:38;6.00;1.00
1361;DHT22;674;45.552;-122.600;2024-03-02T03:48:06;5.90;1.00
1361;DHT22;674;45.552;-122.600;2024-03-02T03:50:35;5.90;1.00
1361;DHT22;674;45.552;-122.600;2024-03-02T03:53:03;5.80;1.00
1361;DHT22;674;45.552;-122.600;2024-03-02T03:55:32;5.70;1.00
1361;DHT22;674;45.552;-122.600;2024-03-02T03:58:00;5.60;1.00
1361;DHT22;674;45.552;-122.600;2024-03-02T04:00:28;6.00;1.00
1361;DHT22;674;45.552;-122.600;2024-03-02T04:02:57;5.90;1.00
1361;DHT22;674;45.552;-122.600;2024-03-02T04:05:25;5.70;1.00
1361;DHT22;674;45.552;-122.600;2024-03-02T04:07:55;5.70;1.00
1361;DHT22;674;45.552;-122.600;2024-03-02T04:10:23;5.90;1.00
1361;DHT22;674;45.552;-122.600;2024-03-02T04:12:52;5.80;1.00
1361;DHT22;674;45.552;-122.600;2024-03-02T04:15:21;5.70;1.00
1361;DHT22;674;45.552;-122.600;2024-03-02T04:17:51;5.70;1.00
1361;DHT22;674;45.552;-122.600;2024-03-02T04:20:19;6.00;1.00
1361;DHT22;674;45.552;-122.600;2024-03-02T04:22:48;5.70;1.00
1361;DHT22;674;45.552;-122.600;2024-03-02T04:25:16;5.80;1.00
1361;DHT22;674;45.552;-122.600;2024-03-02T04:27:45;5.60;1.00
1361;DHT22;674;45.552;-122.600;2024-03-02T04:30:13;5.60;1.00
1361;DHT22;674;45.552;-122.600;2024-03-02T04:32:42;5.60;1.00
1361;DHT22;674;45.552;-122.600;2024-03-02T04:35:14;5.60;1.00
1361;DHT22;674;45.552;-122.600;2024-03-02T04:37:42;5.60;1.00
1361;DHT22;674;45.552;-122.600;2024-03-02T04:40:12;5.60;1.00
1361;DHT22;674;45.552;-122.600;2024-03-02T04:42:40;5.90;1.00
1361;DHT22;674;45.552;-122.600;2024-03-02T04:45:09;5.60;1.00
1361;DHT22;674;45.552;-122.600;2024-03-02T04:47:37;5.60;1.00
1361;DHT22;674;45.552;-122.600;2024-03-02T04:50:06;5.40;1.00
1361;DHT22;674;45.552;-122.600;2024-03-02T04:52:35;5.30;1.00
1361;DHT22;674;45.552;-122.600;2024-03-02T04:55:04;5.90;1.00
1361;DHT22;674;45.552;-122.600;2024-03-02T04:57:45;5.80;1.00
1361;DHT22;674;45.552;-122.600;2024-03-02T05:00:14;5.50;1.00
1361;DHT22;674;45.552;-122.600;2024-03-02T05:02:43;5.80;1.00
1361;DHT22;674;45.552;-122.600;2024-03-02T05:05:11;5.50;1.00
1361;DHT22;674;45.552;-122.600;2024-03-02T05:07:39;5.30;1.00
1361;DHT22;674;45.552;-122.600;2024-03-02T05:10:10;5.30;1.00
1361;DHT22;674;45.552;-122.600;2024-03-02T05:12:39;5.50;1.00
1361;DHT22;674;45.552;-122.600;2024-03-02T05:15:13;5.30;1.00
1361;DHT22;674;45.552;-122.600;2024-03-02T05:17:42;5.60;1.00
1361;DHT22;674;45.552;-122.600;2024-03-02T05:20:11;5.40;1.00
1361;DHT22;674;45.552;-122.600;2024-03-02T05:22:39;5.30;1.00
1361;DHT22;674;45.552;-122.600;2024-03-02T05:25:08;5.90;1.00
1361;DHT22;674;45.552;-122.600;2024-03-02T05:27:40;5.30;1.00
1361;DHT22;674;45.552;-122.600;2024-03-02T05:30:09;5.60;1.00
1361;DHT22;674;45.552;-122.600;2024-03-02T05:32:38;5.60;1.00
1361;DHT22;674;45.552;-122.600;2024-03-02T05:35:06;5.60;1.00
1361;DHT22;674;45.552;-122.600;2024-03-02T05:37:35;5.60;1.00
1361;DHT22;674;45.552;-122.600;2024-03-02T05:40:04;5.50;1.00
1361;DHT22;674;45.552;-122.600;2024-03-02T05:42:33;5.20;1.00
1361;DHT22;674;45.552;-122.600;2024-03-02T05:45:02;5.00;1.00
1361;DHT22;674;45.552;-122.600;2024-03-02T05:47:31;4.90;1.00
1361;DHT22;674;45.552;-122.600;2024-03-02T05:50:01;4.90;3.80
1361;DHT22;674;45.552;-122.600;2024-03-02T05:52:30;4.80;7.40
1361;DHT22;674;45.552;-122.600;2024-03-02T05:54:58;4.90;25.10
1361;DHT22;674;45.552;-122.600;2024-03-02T05:57:27;4.80;47.00
1361;DHT22;674;45.552;-122.600;2024-03-02T06:00:15;4.60;64.50
1361;DHT22;674;45.552;-122.600;2024-03-02T06:02:45;4.60;76.10
1361;DHT22;674;45.552;-122.600;2024-03-02T06:05:14;4.60;89.30
1361;DHT22;674;45.552;-122.600;2024-03-02T06:07:43;4.70;93.50
1361;DHT22;674;45.552;-122.600;2024-03-02T06:10:12;4.90;94.60
1361;DHT22;674;45.552;-122.600;2024-03-02T06:12:41;4.90;94.60
1361;DHT22;674;45.552;-122.600;2024-03-02T06:15:10;4.80;93.90
1361;DHT22;674;45.552;-122.600;2024-03-02T06:17:41;4.70;94.70
1361;DHT22;674;45.552;-122.600;2024-03-02T06:20:10;5.20;93.20
1361;DHT22;674;45.552;-122.600;2024-03-02T06:22:38;4.70;93.80
1361;DHT22;674;45.552;-122.600;2024-03-02T06:25:07;4.70;94.50
1361;DHT22;674;45.552;-122.600;2024-03-02T06:27:36;4.80;96.60
1361;DHT22;674;45.552;-122.600;2024-03-02T06:30:05;4.60;97.60
1361;DHT22;674;45.552;-122.600;2024-03-02T06:32:33;4.70;99.60
1361;DHT22;674;45.552;-122.600;2024-03-02T06:35:02;4.60;99.90
1361;DHT22;674;45.552;-122.600;2024-03-02T06:37:32;4.70;99.90
1361;DHT22;674;45.552;-122.600;2024-03-02T06:40:01;4.60;99.90
1361;DHT22;674;45.552;-122.600;2024-03-02T06:42:30;4.60;99.90
1361;DHT22;674;45.552;-122.600;2024-03-02T06:45:02;4.60;99.90
1361;DHT22;674;45.552;-122.600;2024-03-02T06:47:31;4.70;99.90
1361;DHT22;674;45.552;-122.600;2024-03-02T06:50:00;4.90;99.90
1361;DHT22;674;45.552;-122.600;2024-03-02T06:52:29;4.70;99.90
1361;DHT22;674;45.552;-122.600;2024-03-02T06:54:57;4.60;99.90
1361;DHT22;674;45.552;-122.600;2024-03-02T06:57:25;4.60;99.90
1361;DHT22;674;45.552;-122.600;2024-03-02T06:59:54;4.70;99.90
1361;DHT22;674;45.552;-122.600;2024-03-02T07:02:26;4.60;99.90
1361;DHT22;674;45.552;-122.600;2024-03-02T07:04:55;4.70;99.90
1361;DHT22;674;45.552;-122.600;2024-03-02T07:07:23;4.70;99.90
1361;DHT22;674;45.552;-122.600;2024-03-02T07:09:52;4.70;99.90
1361;DHT22;674;45.552;-122.600;2024-03-02T07:12:20;4.60;99.90
1361;DHT22;674;45.552;-122.600;2024-03-02T07:14:49;4.60;99.90
1361;DHT22;674;45.552;-122.600;2024-03-02T07:17:32;4.60;99.90
1361;DHT22;674;45.552;-122.600;2024-03-02T07:20:01;4.70;99.90
1361;DHT22;674;45.552;-122.600;2024-03-02T07:22:29;4.70;99.90
1361;DHT22;674;45.552;-122.600;2024-03-02T07:24:58;4.70;99.90
1361;DHT22;674;45.552;-122.600;2024-03-02T07:27:27;4.40;99.90
1361;DHT22;674;45.552;-122.600;2024-03-02T07:29:55;4.40;99.90
1361;DHT22;674;45.552;-122.600;2024-03-02T07:32:24;4.50;99.90
1361;DHT22;674;45.552;-122.600;2024-03-02T07:34:52;4.50;99.90
1361;DHT22;674;45.552;-122.600;2024-03-02T07:37:21;4.40;99.90
1361;DHT22;674;45.552;-122.600;2024-03-02T07:39:50;4.60;99.90
1361;DHT22;674;45.552;-122.600;2024-03-02T07:42:18;4.40;99.90
1361;DHT22;674;45.552;-122.600;2024-03-02T07:44:47;4.40;99.90
1361;DHT22;674;45.552;-122.600;2024-03-02T07:47:15;4.50;99.90
1361;DHT22;674;45.552;-122.600;2024-03-02T07:49:44;4.40;99.90
1361;DHT22;674;45.552;-122.600;2024-03-02T07:52:14;4.60;99.90
1361;DHT22;674;45.552;-122.600;2024-03-02T07:54:42;4.40;99.90
1361;DHT22;674;45.552;-122.600;2024-03-02T07:57:11;4.90;99.90
1361;DHT22;674;45.552;-122.600;2024-03-02T07:59:39;4.50;99.90
1361;DHT22;674;45.552;-122.600;2024-03-02T08:02:08;4.40;99.90
1361;DHT22;674;45.552;-122.600;2024-03-02T08:04:36;4.60;99.90
1361;DHT22;674;45.552;-122.600;2024-03-02T08:07:05;4.90;99.90
1361;DHT22;674;45.552;-122.600;2024-03-02T08:09:34;4.40;99.90
1361;DHT22;674;45.552;-122.600;2024-03-02T08:12:03;4.60;99.90
1361;DHT22;674;45.552;-122.600;2024-03-02T08:14:31;4.50;99.90
1361;DHT22;674;45.552;-122.600;2024-03-02T08:16:59;4.60;99.90
1361;DHT22;674;45.552;-122.600;2024-03-02T08:19:29;4.60;99.90
1361;DHT22;674;45.552;-122.600;2024-03-02T08:21:58;4.40;99.90
1361;DHT22;674;45.552;-122.600;2024-03-02T08:24:27;4.40;99.90
1361;DHT22;674;45.552;-122.600;2024-03-02T08:26:56;4.40;99.90
1361;DHT22;674;45.552;-122.600;2024-03-02T08:29:24;4.90;99.90
1361;DHT22;674;45.552;-122.600;2024-03-02T08:31:53;4.50;98.40
1361;DHT22;674;45.552;-122.600;2024-03-02T08:34:22;4.90;95.90
1361;DHT22;674;45.552;-122.600;2024-03-02T08:36:50;4.40;94.70
1361;DHT22;674;45.552;-122.600;2024-03-02T08:39:19;4.60;92.70
1361;DHT22;674;45.552;-122.600;2024-03-02T08:41:48;4.40;90.90
1361;DHT22;674;45.552;-122.600;2024-03-02T08:44:17;4.30;85.30
1361;DHT22;674;45.552;-122.600;2024-03-02T08:46:45;4.50;80.90
1361;DHT22;674;45.552;-122.600;2024-03-02T08:49:14;4.40;76.00
1361;DHT22;674;45.552;-122.600;2024-03-02T08:51:42;4.40;69.40
1361;DHT22;674;45.552;-122.600;2024-03-02T08:54:11;4.40;69.10
1361;DHT22;674;45.552;-122.600;2024-03-02T08:56:39;4.40;66.70
1361;DHT22;674;45.552;-122.600;2024-03-02T08:59:07;4.40;67.40
1361;DHT22;674;45.552;-122.600;2024-03-02T09:01:36;4.60;64.10
1361;DHT22;674;45.552;-122.600;2024-03-02T09:04:09;4.30;61.60
1361;DHT22;674;45.552;-122.600;2024-03-02T09:06:38;4.40;55.20
1361;DHT22;674;45.552;-122.600;2024-03-02T09:09:06;4.60;44.80
1361;DHT22;674;45.552;-122.600;2024-03-02T09:11:35;4.30;47.70
1361;DHT22;674;45.552;-122.600;2024-03-02T09:14:04;4.20;45.90
1361;DHT22;674;45.552;-122.600;2024-03-02T09:16:33;4.20;51.10
1361;DHT22;674;45.552;-122.600;2024-03-02T09:19:01;4.10;55.60
1361;DHT22;674;45.552;-122.600;2024-03-02T09:21:30;4.10;53.30
1361;DHT22;674;45.552;-122.600;2024-03-02T09:23:58;4.00;55.30
1361;DHT22;674;45.552;-122.600;2024-03-02T09:26:27;4.00;60.30
1361;DHT22;674;45.552;-122.600;2024-03-02T09:28:55;4.20;60.20
1361;DHT22;674;45.552;-122.600;2024-03-02T09:31:24;4.00;58.40
1361;DHT22;674;45.552;-122.600;2024-03-02T09:33:52;4.10;60.70
1361;DHT22;674;45.552;-122.600;2024-03-02T09:36:22;4.10;61.80
1361;DHT22;674;45.552;-122.600;2024-03-02T09:38:51;4.10;60.00
1361;DHT22;674;45.552;-122.600;2024-03-02T09:41:19;4.30;51.20
1361;DHT22;674;45.552;-122.600;2024-03-02T09:43:48;4.20;48.40
1361;DHT22;674;45.552;-122.600;2024-03-02T09:46:17;4.10;49.20
1361;DHT22;674;45.552;-122.600;2024-03-02T09:48:46;4.10;43.50
1361;DHT22;674;45.552;-122.600;2024-03-02T09:51:14;4.20;42.10
1361;DHT22;674;45.552;-122.600;2024-03-02T09:53:43;4.00;38.60
1361;DHT22;674;45.552;-122.600;2024-03-02T09:56:12;4.60;37.20
1361;DHT22;674;45.552;-122.600;2024-03-02T09:58:40;4.40;28.30
1361;DHT22;674;45.552;-122.600;2024-03-02T10:01:09;4.10;25.70
1361;DHT22;674;45.552;-122.600;2024-03-02T10:03:41;4.50;30.80
1361;DHT22;674;45.552;-122.600;2024-03-02T10:06:21;4.50;35.60
1361;DHT22;674;45.552;-122.600;2024-03-02T10:08:49;4.50;28.90
1361;DHT22;674;45.552;-122.600;2024-03-02T10:11:32;4.30;35.40
1361;DHT22;674;45.552;-122.600;2024-03-02T10:14:06;4.30;26.40
1361;DHT22;674;45.552;-122.600;2024-03-02T10:16:40;4.30;26.40
1361;DHT22;674;45.552;-122.600;2024-03-02T10:19:20;4.10;23.50
1361;DHT22;674;45.552;-122.600;2024-03-02T10:21:50;4.10;24.00
1361;DHT22;674;45.552;-122.600;2024-03-02T10:24:21;4.10;26.20
1361;DHT22;674;45.552;-122.600;2024-03-02T10:26:50;4.10;28.80
1361;DHT22;674;45.552;-122.600;2024-03-02T10:29:19;4.10;21.90
1361;DHT22;674;45.552;-122.600;2024-03-02T10:31:47;4.10;18.80
1361;DHT22;674;45.552;-122.600;2024-03-02T10:34:16;4.10;22.40
1361;DHT22;674;45.552;-122.600;2024-03-02T10:36:44;3.80;21.80
1361;DHT22;674;45.552;-122.600;2024-03-02T10:39:16;3.70;24.20
1361;DHT22;674;45.552;-122.600;2024-03-02T10:41:46;3.80;27.00
1361;DHT22;674;45.552;-122.600;2024-03-02T10:44:17;3.80;25.00
1361;DHT22;674;45.552;-122.600;2024-03-02T10:46:47;3.80;28.30
1361;DHT22;674;45.552;-122.600;2024-03-02T10:49:17;3.80;27.30
1361;DHT22;674;45.552;-122.600;2024-03-02T10:51:46;3.90;28.50
1361;DHT22;674;45.552;-122.600;2024-03-02T10:54:15;3.80;28.70
1361;DHT22;674;45.552;-122.600;2024-03-02T10:56:45;4.00;28.10
1361;DHT22;674;45.552;-122.600;2024-03-02T11:01:49;3.90;38.60
1361;DHT22;674;45.552;-122.600;2024-03-02T11:04:19;3.70;38.80
1361;DHT22;674;45.552;-122.600;2024-03-02T11:06:51;3.80;37.20
1361;DHT22;674;45.552;-122.600;2024-03-02T11:09:21;3.80;40.80
1361;DHT22;674;45.552;-122.600;2024-03-02T11:12:01;3.90;40.20
1361;DHT22;674;45.552;-122.600;2024-03-02T11:14:31;3.90;46.40
1361;DHT22;674;45.552;-122.600;2024-03-02T11:17:04;3.80;51.20
1361;DHT22;674;45.552;-122.600;2024-03-02T11:19:33;3.80;53.70
1361;DHT22;674;45.552;-122.600;2024-03-02T11:22:03;3.80;51.60
1361;DHT22;674;45.552;-122.600;2024-03-02T11:24:32;3.80;58.90
1361;DHT22;674;45.552;-122.600;2024-03-02T11:27:07;3.80;58.40
1361;DHT22;674;45.552;-122.600;2024-03-02T11:29:42;3.70;61.10
1361;DHT22;674;45.552;-122.600;2024-03-02T11:32:20;3.80;57.90
1361;DHT22;674;45.552;-122.600;2024-03-02T11:34:50;4.00;58.80
1361;DHT22;674;45.552;-122.600;2024-03-02T11:37:19;3.70;57.70
1361;DHT22;674;45.552;-122.600;2024-03-02T11:39:51;3.80;62.60
1361;DHT22;674;45.552;-122.600;2024-03-02T11:42:20;3.80;57.20
1361;DHT22;674;45.552;-122.600;2024-03-02T11:44:49;4.00;59.00
1361;DHT22;674;45.552;-122.600;2024-03-02T11:47:17;4.00;47.00
1361;DHT22;674;45.552;-122.600;2024-03-02T11:49:48;4.00;36.20
1361;DHT22;674;45.552;-122.600;2024-03-02T11:52:18;3.80;36.70
1361;DHT22;674;45.552;-122.600;2024-03-02T11:54:47;3.80;31.80
1361;DHT22;674;45.552;-122.600;2024-03-02T11:57:20;3.90;24.50
1361;DHT22;674;45.552;-122.600;2024-03-02T11:59:52;3.80;24.10
1361;DHT22;674;45.552;-122.600;2024-03-02T12:02:21;4.00;18.60
1361;DHT22;674;45.552;-122.600;2024-03-02T12:04:50;3.90;18.50
1361;DHT22;674;45.552;-122.600;2024-03-02T12:07:20;3.80;15.80
1361;DHT22;674;45.552;-122.600;2024-03-02T12:09:59;3.90;18.20
1361;DHT22;674;45.552;-122.600;2024-03-02T12:12:31;3.80;20.80
1361;DHT22;674;45.552;-122.600;2024-03-02T12:14:59;3.90;24.80
1361;DHT22;674;45.552;-122.600;2024-03-02T12:17:29;3.80;25.20
1361;DHT22;674;45.552;-122.600;2024-03-02T12:19:57;3.70;27.30
1361;DHT22;674;45.552;-122.600;2024-03-02T12:22:26;3.40;33.40
1361;DHT22;674;45.552;-122.600;2024-03-02T12:24:54;3.50;50.20
1361;DHT22;674;45.552;-122.600;2024-03-02T12:27:23;3.60;63.70
1361;DHT22;674;45.552;-122.600;2024-03-02T12:29:51;3.60;74.80
1361;DHT22;674;45.552;-122.600;2024-03-02T12:32:20;3.70;75.00
1361;DHT22;674;45.552;-122.600;2024-03-02T12:34:50;3.60;82.10
1361;DHT22;674;45.552;-122.600;2024-03-02T12:37:19;3.40;83.00
1361;DHT22;674;45.552;-122.600;2024-03-02T12:39:47;3.50;85.50
1361;DHT22;674;45.552;-122.600;2024-03-02T12:42:16;3.30;84.30
1361;DHT22;674;45.552;-122.600;2024-03-02T12:44:44;3.40;91.10
1361;DHT22;674;45.552;-122.600;2024-03-02T12:47:12;3.30;94.30
1361;DHT22;674;45.552;-122.600;2024-03-02T12:49:41;3.20;94.90
1361;DHT22;674;45.552;-122.600;2024-03-02T12:52:12;3.30;95.10
1361;DHT22;674;45.552;-122.600;2024-03-02T12:54:41;3.00;98.70
1361;DHT22;674;45.552;-122.600;2024-03-02T12:57:09;3.00;99.90
1361;DHT22;674;45.552;-122.600;2024-03-02T12:59:38;3.00;99.90
1361;DHT22;674;45.552;-122.600;2024-03-02T13:02:06;3.10;99.90
1361;DHT22;674;45.552;-122.600;2024-03-02T13:04:35;2.90;99.90
1361;DHT22;674;45.552;-122.600;2024-03-02T13:07:03;2.70;99.90
1361;DHT22;674;45.552;-122.600;2024-03-02T13:09:32;2.80;99.90
1361;DHT22;674;45.552;-122.600;2024-03-02T13:12:01;2.70;99.90
1361;DHT22;674;45.552;-122.600;2024-03-02T13:14:35;2.70;99.90
1361;DHT22;674;45.552;-122.600;2024-03-02T13:17:04;2.30;99.90
1361;DHT22;674;45.552;-122.600;2024-03-02T13:19:33;2.70;99.90
1361;DHT22;674;45.552;-122.600;2024-03-02T13:22:02;2.50;99.90
1361;DHT22;674;45.552;-122.600;2024-03-02T13:24:31;2.50;99.90
1361;DHT22;674;45.552;-122.600;2024-03-02T13:27:01;2.50;99.90
1361;DHT22;674;45.552;-122.600;2024-03-02T13:29:31;2.40;99.90
1361;DHT22;674;45.552;-122.600;2024-03-02T13:32:00;2.30;99.90
1361;DHT22;674;45.552;-122.600;2024-03-02T13:34:28;2.50;99.90
1361;DHT22;674;45.552;-122.600;2024-03-02T13:36:57;2.50;99.90
1361;DHT22;674;45.552;-122.600;2024-03-02T13:39:25;2.50;99.90
1361;DHT22;674;45.552;-122.600;2024-03-02T13:41:54;2.50;99.90
1361;DHT22;674;45.552;-122.600;2024-03-02T13:44:31;2.20;99.90
1361;DHT22;674;45.552;-122.600;2024-03-02T13:47:00;2.50;99.90
1361;DHT22;674;45.552;-122.600;2024-03-02T13:49:29;2.50;99.90
1361;DHT22;674;45.552;-122.600;2024-03-02T13:52:05;2.50;99.90
1361;DHT22;674;45.552;-122.600;2024-03-02T13:54:42;2.30;99.90
1361;DHT22;674;45.552;-122.600;2024-03-02T13:57:11;2.50;99.90
1361;DHT22;674;45.552;-122.600;2024-03-02T13:59:42;2.50;99.90
1361;DHT22;674;45.552;-122.600;2024-03-02T14:02:11;2.30;99.90
1361;DHT22;674;45.552;-122.600;2024-03-02T14:04:40;2.20;99.90
1361;DHT22;674;45.552;-122.600;2024-03-02T14:07:08;2.10;99.90
1361;DHT22;674;45.552;-122.600;2024-03-02T14:09:39;2.20;99.90
1361;DHT22;674;45.552;-122.600;2024-03-02T14:12:07;2.20;99.90
1361;DHT22;674;45.552;-122.600;2024-03-02T14:14:37;2.20;99.90
1361;DHT22;674;45.552;-122.600;2024-03-02T14:17:05;2.20;99.90
1361;DHT22;674;45.552;-122.600;2024-03-02T14:19:34;2.20;99.90
1361;DHT22;674;45.552;-122.600;2024-03-02T14:22:03;2.00;99.90
1361;DHT22;674;45.552;-122.600;2024-03-02T14:24:33;2.10;99.90
1361;DHT22;674;45.552;-122.600;2024-03-02T14:27:01;2.20;99.90
1361;DHT22;674;45.552;-122.600;2024-03-02T14:29:50;2.20;99.90
1361;DHT22;674;45.552;-122.600;2024-03-02T14:32:19;2.30;99.90
1361;DHT22;674;45.552;-122.600;2024-03-02T14:34:47;2.30;99.90
1361;DHT22;674;45.552;-122.600;2024-03-02T14:37:16;2.50;99.90
1361;DHT22;674;45.552;-122.600;2024-03-02T14:39:45;2.50;99.90
1361;DHT22;674;45.552;-122.600;2024-03-02T14:42:13;2.50;99.90
1361;DHT22;674;45.552;-122.600;2024-03-02T14:44:41;2.50;99.90
1361;DHT22;674;45.552;-122.600;2024-03-02T14:47:10;2.50;99.90
1361;DHT22;674;45.552;-122.600;2024-03-02T14:49:39;2.50;99.90
1361;DHT22;674;45.552;-122.600;2024-03-02T14:52:09;2.50;99.90
1361;DHT22;674;45.552;-122.600;2024-03-02T14:54:37;2.60;99.90
1361;DHT22;674;45.552;-122.600;2024-03-02T14:57:06;2.40;99.90
1361;DHT22;674;45.552;-122.600;2024-03-02T14:59:35;2.30;99.90
1361;DHT22;674;45.552;-122.600;2024-03-02T15:02:04;2.50;99.90
1361;DHT22;674;45.552;-122.600;2024-03-02T15:04:34;2.30;99.90
1361;DHT22;674;45.552;-122.600;2024-03-02T15:07:02;2.50;99.90
1361;DHT22;674;45.552;-122.600;2024-03-02T15:09:31;2.40;99.90
1361;DHT22;674;45.552;-122.600;2024-03-02T15:12:03;2.40;99.90
1361;DHT22;674;45.552;-122.600;2024-03-02T15:14:32;2.40;99.90
1361;DHT22;674;45.552;-122.600;2024-03-02T15:17:01;2.40;99.90
1361;DHT22;674;45.552;-122.600;2024-03-02T15:19:29;2.70;99.90
1361;DHT22;674;45.552;-122.600;2024-03-02T15:21:58;2.30;99.90
1361;DHT22;674;45.552;-122.600;2024-03-02T15:24:26;2.70;99.90
1361;DHT22;674;45.552;-122.600;2024-03-02T15:26:55;2.30;99.90
1361;DHT22;674;45.552;-122.600;2024-03-02T15:29:24;2.50;99.90
1361;DHT22;674;45.552;-122.600;2024-03-02T15:31:57;2.50;99.90
1361;DHT22;674;45.552;-122.600;2024-03-02T15:34:26;2.40;99.90
1361;DHT22;674;45.552;-122.600;2024-03-02T15:36:55;2.40;99.90
1361;DHT22;674;45.552;-122.600;2024-03-02T15:39:24;2.70;99.90
1361;DHT22;674;45.552;-122.600;2024-03-02T15:41:52;2.50;99.90
1361;DHT22;674;45.552;-122.600;2024-03-02T15:44:20;2.50;99.90
1361;DHT22;674;45.552;-122.600;2024-03-02T15:46:49;2.70;99.90
1361;DHT22;674;45.552;-122.600;2024-03-02T15:49:17;2.70;99.90
1361;DHT22;674;45.552;-122.600;2024-03-02T15:51:47;2.70;99.90
1361;DHT22;674;45.552;-122.600;2024-03-02T15:54:16;2.50;99.90
1361;DHT22;674;45.552;-122.600;2024-03-02T15:56:44;2.70;99.90
1361;DHT22;674;45.552;-122.600;2024-03-02T15:59:13;2.70;99.90
1361;DHT22;674;45.552;-122.600;2024-03-02T16:01:41;2.50;99.90
1361;DHT22;674;45.552;-122.600;2024-03-02T16:04:11;2.70;99.90
1361;DHT22;674;45.552;-122.600;2024-03-02T16:06:39;2.70;99.90
1361;DHT22;674;45.552;-122.600;2024-03-02T16:09:08;2.80;99.90